createdAt,value
2022-11-23T00:00:34.907Z,0.00
2022-11-23T00:01:34.903Z,0.00
2022-11-23T00:02:34.938Z,0.00
2022-11-23T00:03:34.893Z,0.00
2022-11-23T00:04:34.886Z,0.00
2022-11-23T00:05:34.884Z,0.00
2022-11-23T00:06:34.880Z,0.00
2022-11-23T00:07:34.945Z,0.00
2022-11-23T00:08:34.991Z,0.00
2022-11-23T00:09:34.866Z,0.00
2022-11-23T00:10:34.858Z,0.00
2022-11-23T00:11:34.869Z,0.00
2022-11-23T00:12:34.855Z,0.00
2022-11-23T00:13:34.852Z,0.00
2022-11-23T00:14:34.843Z,0.00
2022-11-23T00:15:34.843Z,0.00
2022-11-23T00:16:34.835Z,0.00
2022-11-23T00:17:34.836Z,0.00
2022-11-23T00:18:34.824Z,0.00
2022-11-23T00:19:34.942Z,0.00
2022-11-23T00:20:34.818Z,0.00
2022-11-23T00:21:34.812Z,0.00
2022-11-23T00:22:34.806Z,0.00
2022-11-23T00:23:34.806Z,0.00
2022-11-23T00:24:34.878Z,0.00
2022-11-23T00:25:34.797Z,0.00
2022-11-23T00:26:34.791Z,0.00
2022-11-23T00:27:34.795Z,0.00
2022-11-23T00:28:34.785Z,0.00
2022-11-23T00:29:34.781Z,0.00
2022-11-23T00:30:35.023Z,0.00
2022-11-23T00:31:34.773Z,0.00
2022-11-23T00:32:34.763Z,0.00
2022-11-23T00:33:34.761Z,0.00
2022-11-23T00:34:34.757Z,0.00
2022-11-23T00:35:34.757Z,0.00
2022-11-23T00:36:34.759Z,0.00
2022-11-23T00:37:34.745Z,0.00
2022-11-23T00:38:34.740Z,0.00
2022-11-23T00:39:34.737Z,0.00
2022-11-23T00:40:34.749Z,0.00
2022-11-23T00:41:34.731Z,0.00
2022-11-23T00:42:38.059Z,0.00
2022-11-23T00:43:34.717Z,0.00
2022-11-23T00:44:34.722Z,0.00
2022-11-23T00:45:34.709Z,0.00
2022-11-23T00:46:34.713Z,0.00
2022-11-23T00:47:34.704Z,0.00
2022-11-23T00:48:34.701Z,0.00
2022-11-23T00:49:34.697Z,0.00
2022-11-23T00:50:34.686Z,0.00
2022-11-23T00:51:34.690Z,0.00
2022-11-23T00:52:34.680Z,0.00
2022-11-23T00:53:34.676Z,0.00
2022-11-23T00:54:34.671Z,0.00
2022-11-23T00:55:34.677Z,0.00
2022-11-23T00:56:34.705Z,0.00
2022-11-23T00:57:34.658Z,0.00
2022-11-23T00:58:34.658Z,0.00
2022-11-23T00:59:34.831Z,0.00
2022-11-23T01:00:34.646Z,0.00
2022-11-23T01:01:34.718Z,0.00
2022-11-23T01:02:34.641Z,0.00
2022-11-23T01:03:34.633Z,0.00
2022-11-23T01:04:34.636Z,0.00
2022-11-23T01:05:34.623Z,0.00
2022-11-23T01:06:34.627Z,0.00
2022-11-23T01:07:34.672Z,0.00
2022-11-23T01:08:34.622Z,0.00
2022-11-23T01:09:34.608Z,0.00
2022-11-23T01:10:34.603Z,0.00
2022-11-23T01:11:34.608Z,0.00
2022-11-23T01:12:34.615Z,0.00
2022-11-23T01:13:34.593Z,0.00
2022-11-23T01:14:34.588Z,0.00
2022-11-23T01:15:34.581Z,0.00
2022-11-23T01:16:34.582Z,0.00
2022-11-23T01:17:34.575Z,0.00
2022-11-23T01:18:34.569Z,0.00
2022-11-23T01:19:34.721Z,0.00
2022-11-23T01:20:34.560Z,0.00
2022-11-23T01:21:34.556Z,0.00
2022-11-23T01:22:34.552Z,0.00
2022-11-23T01:23:34.550Z,0.00
2022-11-23T01:24:34.544Z,0.00
2022-11-23T01:25:34.539Z,0.00
2022-11-23T01:26:34.537Z,0.00
2022-11-23T01:27:34.531Z,0.00
2022-11-23T01:28:34.546Z,0.00
2022-11-23T01:29:34.813Z,0.00
2022-11-23T01:30:34.870Z,0.00
2022-11-23T01:31:34.514Z,0.00
2022-11-23T01:32:34.520Z,0.00
2022-11-23T01:33:34.506Z,0.00
2022-11-23T01:34:34.502Z,0.00
2022-11-23T01:35:34.502Z,0.00
2022-11-23T01:36:34.493Z,0.00
2022-11-23T01:37:34.487Z,0.00
2022-11-23T01:38:34.484Z,0.00
2022-11-23T01:39:34.675Z,0.00
2022-11-23T01:40:34.484Z,0.00
2022-11-23T01:41:34.475Z,0.00
2022-11-23T01:42:34.467Z,0.00
2022-11-23T01:43:34.461Z,0.00
2022-11-23T01:44:34.479Z,0.00
2022-11-23T01:45:34.456Z,0.00
2022-11-23T01:46:34.453Z,0.00
2022-11-23T01:47:34.446Z,0.00
2022-11-23T01:48:34.442Z,0.00
2022-11-23T01:49:34.694Z,0.00
2022-11-23T01:50:34.435Z,0.00
2022-11-23T01:51:34.434Z,0.00
2022-11-23T01:52:34.426Z,0.00
2022-11-23T01:53:34.420Z,0.00
2022-11-23T01:54:34.425Z,0.00
2022-11-23T01:55:34.412Z,0.00
2022-11-23T01:56:34.408Z,0.00
2022-11-23T01:57:34.403Z,0.00
2022-11-23T01:58:34.400Z,0.00
2022-11-23T01:59:34.741Z,0.00
2022-11-23T02:00:34.423Z,0.00
2022-11-23T02:01:34.411Z,0.00
2022-11-23T02:02:34.384Z,0.00
2022-11-23T02:03:34.381Z,0.00
2022-11-23T02:04:34.375Z,0.00
2022-11-23T02:05:34.372Z,0.00
2022-11-23T02:06:34.370Z,0.00
2022-11-23T02:07:34.378Z,0.00
2022-11-23T02:08:34.358Z,0.00
2022-11-23T02:09:34.629Z,0.00
2022-11-23T02:10:34.348Z,0.00
2022-11-23T02:11:34.344Z,0.00
2022-11-23T02:12:34.343Z,0.00
2022-11-23T02:13:34.340Z,0.00
2022-11-23T02:14:34.331Z,0.00
2022-11-23T02:15:34.330Z,0.00
2022-11-23T02:16:34.340Z,0.00
2022-11-23T02:17:34.324Z,0.00
2022-11-23T02:18:34.315Z,0.00
2022-11-23T02:19:34.562Z,0.00
2022-11-23T02:20:34.307Z,0.00
2022-11-23T02:21:34.310Z,0.00
2022-11-23T02:22:34.297Z,0.00
2022-11-23T02:23:34.297Z,0.00
2022-11-23T02:24:34.290Z,0.00
2022-11-23T02:25:34.286Z,0.00
2022-11-23T02:26:34.282Z,0.00
2022-11-23T02:27:34.279Z,0.00
2022-11-23T02:28:34.276Z,0.00
2022-11-23T02:29:34.396Z,0.00
2022-11-23T02:30:34.414Z,0.00
2022-11-23T02:31:34.263Z,0.00
2022-11-23T02:32:34.276Z,0.00
2022-11-23T02:33:34.254Z,0.00
2022-11-23T02:34:34.248Z,0.00
2022-11-23T02:35:34.249Z,0.00
2022-11-23T02:36:34.242Z,0.00
2022-11-23T02:37:34.237Z,0.00
2022-11-23T02:38:34.232Z,0.00
2022-11-23T02:39:34.455Z,0.00
2022-11-23T02:40:34.225Z,0.00
2022-11-23T02:41:34.222Z,0.00
2022-11-23T02:42:34.214Z,0.00
2022-11-23T02:43:34.214Z,0.00
2022-11-23T02:44:34.206Z,0.00
2022-11-23T02:45:34.208Z,0.00
2022-11-23T02:46:34.200Z,0.00
2022-11-23T02:47:34.200Z,0.00
2022-11-23T02:48:34.211Z,0.00
2022-11-23T02:49:34.513Z,0.00
2022-11-23T02:50:34.181Z,0.00
2022-11-23T02:51:34.180Z,0.00
2022-11-23T02:52:34.178Z,0.00
2022-11-23T02:53:34.169Z,0.00
2022-11-23T02:54:34.168Z,0.00
2022-11-23T02:55:34.165Z,0.00
2022-11-23T02:56:34.157Z,0.00
2022-11-23T02:57:34.155Z,0.00
2022-11-23T02:58:34.147Z,0.00
2022-11-23T02:59:34.439Z,0.00
2022-11-23T03:00:34.286Z,0.00
2022-11-23T03:01:34.138Z,0.00
2022-11-23T03:02:34.131Z,0.00
2022-11-23T03:03:34.129Z,0.00
2022-11-23T03:04:34.143Z,0.00
2022-11-23T03:05:34.122Z,0.00
2022-11-23T03:06:34.115Z,0.00
2022-11-23T03:07:34.166Z,0.00
2022-11-23T03:08:34.107Z,0.00
2022-11-23T03:09:34.386Z,0.00
2022-11-23T03:10:34.097Z,0.00
2022-11-23T03:11:34.156Z,0.00
2022-11-23T03:12:34.088Z,0.00
2022-11-23T03:13:34.091Z,0.00
2022-11-23T03:14:34.082Z,0.00
2022-11-23T03:15:34.079Z,0.00
2022-11-23T03:16:34.079Z,0.00
2022-11-23T03:17:34.073Z,0.00
2022-11-23T03:18:34.072Z,0.00
2022-11-23T03:19:34.398Z,0.00
2022-11-23T03:20:34.074Z,0.00
2022-11-23T03:21:34.053Z,0.00
2022-11-23T03:22:34.052Z,0.00
2022-11-23T03:23:34.046Z,0.00
2022-11-23T03:24:34.045Z,0.00
2022-11-23T03:25:34.036Z,0.00
2022-11-23T03:26:34.030Z,0.00
2022-11-23T03:27:34.033Z,0.00
2022-11-23T03:28:34.026Z,0.00
2022-11-23T03:29:34.380Z,0.00
2022-11-23T03:30:34.018Z,0.00
2022-11-23T03:31:34.024Z,0.00
2022-11-23T03:32:34.014Z,0.00
2022-11-23T03:33:34.005Z,0.00
2022-11-23T03:34:34.003Z,0.00
2022-11-23T03:35:33.999Z,0.00
2022-11-23T03:36:34.013Z,0.00
2022-11-23T03:37:33.987Z,0.00
2022-11-23T03:38:33.981Z,0.00
2022-11-23T03:39:34.402Z,0.00
2022-11-23T03:40:33.978Z,0.00
2022-11-23T03:41:33.973Z,0.00
2022-11-23T03:42:33.972Z,0.00
2022-11-23T03:43:33.963Z,0.00
2022-11-23T03:44:33.961Z,0.00
2022-11-23T03:45:33.956Z,0.00
2022-11-23T03:46:33.949Z,0.00
2022-11-23T03:47:33.948Z,0.00
2022-11-23T03:48:33.943Z,0.00
2022-11-23T03:49:34.236Z,0.00
2022-11-23T03:50:33.930Z,0.00
2022-11-23T03:51:33.930Z,0.00
2022-11-23T03:52:33.967Z,0.00
2022-11-23T03:53:33.919Z,0.00
2022-11-23T03:54:33.919Z,0.00
2022-11-23T03:55:33.913Z,0.00
2022-11-23T03:56:33.907Z,0.00
2022-11-23T03:57:33.903Z,0.00
2022-11-23T03:58:33.899Z,0.00
2022-11-23T03:59:34.259Z,0.00
2022-11-23T04:00:34.073Z,0.00
2022-11-23T04:01:33.968Z,0.00
2022-11-23T04:02:33.888Z,0.00
2022-11-23T04:03:33.888Z,0.00
2022-11-23T04:04:33.874Z,0.00
2022-11-23T04:05:33.869Z,0.00
2022-11-23T04:06:33.863Z,0.00
2022-11-23T04:07:33.905Z,0.00
2022-11-23T04:08:33.875Z,0.00
2022-11-23T04:09:34.278Z,0.00
2022-11-23T04:10:33.850Z,0.00
2022-11-23T04:11:33.850Z,0.00
2022-11-23T04:12:33.851Z,0.00
2022-11-23T04:13:33.841Z,0.00
2022-11-23T04:14:33.833Z,0.00
2022-11-23T04:15:33.832Z,0.00
2022-11-23T04:16:33.826Z,0.00
2022-11-23T04:17:33.818Z,0.00
2022-11-23T04:18:33.812Z,0.00
2022-11-23T04:19:34.144Z,0.00
2022-11-23T04:20:33.805Z,0.00
2022-11-23T04:21:33.803Z,0.00
2022-11-23T04:22:33.797Z,0.00
2022-11-23T04:23:33.792Z,0.00
2022-11-23T04:24:33.808Z,0.00
2022-11-23T04:25:33.786Z,0.00
2022-11-23T04:26:33.782Z,0.00
2022-11-23T04:27:33.776Z,0.00
2022-11-23T04:28:33.773Z,0.00
2022-11-23T04:29:34.082Z,0.00
2022-11-23T04:30:33.764Z,0.00
2022-11-23T04:31:33.762Z,0.00
2022-11-23T04:32:33.755Z,0.00
2022-11-23T04:33:33.750Z,0.00
2022-11-23T04:34:33.745Z,0.00
2022-11-23T04:35:34.095Z,0.00
2022-11-23T04:36:33.738Z,0.00
2022-11-23T04:37:33.734Z,0.00
2022-11-23T04:38:33.729Z,0.00
2022-11-23T04:39:34.032Z,0.00
2022-11-23T04:40:33.862Z,0.00
2022-11-23T04:41:33.717Z,0.00
2022-11-23T04:42:33.718Z,0.00
2022-11-23T04:43:33.709Z,0.00
2022-11-23T04:44:33.707Z,0.00
2022-11-23T04:45:33.700Z,0.00
2022-11-23T04:46:33.694Z,0.00
2022-11-23T04:47:33.691Z,0.00
2022-11-23T04:48:33.687Z,0.00
2022-11-23T04:49:34.042Z,0.00
2022-11-23T04:50:33.677Z,0.00
2022-11-23T04:51:33.678Z,0.00
2022-11-23T04:52:33.669Z,0.00
2022-11-23T04:53:33.667Z,0.00
2022-11-23T04:54:33.662Z,0.00
2022-11-23T04:55:33.658Z,0.00
2022-11-23T04:56:33.671Z,0.00
2022-11-23T04:57:33.656Z,0.00
2022-11-23T04:58:34.758Z,0.00
2022-11-23T04:59:33.845Z,0.00
2022-11-23T05:00:33.650Z,0.00
2022-11-23T05:01:33.683Z,0.00
2022-11-23T05:02:33.631Z,0.00
2022-11-23T05:03:33.637Z,0.00
2022-11-23T05:04:33.621Z,0.00
2022-11-23T05:05:33.620Z,0.00
2022-11-23T05:06:33.616Z,0.00
2022-11-23T05:07:33.656Z,0.00
2022-11-23T05:08:33.609Z,0.00
2022-11-23T05:09:33.936Z,0.00
2022-11-23T05:10:33.591Z,0.00
2022-11-23T05:11:33.591Z,0.00
2022-11-23T05:12:33.608Z,0.00
2022-11-23T05:13:33.583Z,0.00
2022-11-23T05:14:33.574Z,0.00
2022-11-23T05:15:33.573Z,0.00
2022-11-23T05:16:33.568Z,0.00
2022-11-23T05:17:33.565Z,0.00
2022-11-23T05:18:33.559Z,0.00
2022-11-23T05:19:33.856Z,0.00
2022-11-23T05:20:33.550Z,0.00
2022-11-23T05:21:33.548Z,0.00
2022-11-23T05:22:33.541Z,0.00
2022-11-23T05:23:33.539Z,0.00
2022-11-23T05:24:33.534Z,0.00
2022-11-23T05:25:33.534Z,0.00
2022-11-23T05:26:33.524Z,0.00
2022-11-23T05:27:33.525Z,0.00
2022-11-23T05:28:41.559Z,0.00
2022-11-23T05:29:33.700Z,0.00
2022-11-23T05:30:33.509Z,0.00
2022-11-23T05:31:33.507Z,0.00
2022-11-23T05:32:33.518Z,0.00
2022-11-23T05:33:33.499Z,0.00
2022-11-23T05:34:33.495Z,0.00
2022-11-23T05:35:33.488Z,0.00
2022-11-23T05:36:33.486Z,0.00
2022-11-23T05:37:33.484Z,0.00
2022-11-23T05:38:33.481Z,0.00
2022-11-23T05:39:33.834Z,0.00
2022-11-23T05:40:33.670Z,0.00
2022-11-23T05:41:33.466Z,0.00
2022-11-23T05:42:33.468Z,0.00
2022-11-23T05:43:33.470Z,0.00
2022-11-23T05:44:33.473Z,0.00
2022-11-23T05:45:33.450Z,0.00
2022-11-23T05:46:33.443Z,0.00
2022-11-23T05:47:33.441Z,0.00
2022-11-23T05:48:33.437Z,0.00
2022-11-23T05:49:33.783Z,0.00
2022-11-23T05:50:33.424Z,0.00
2022-11-23T05:51:33.423Z,0.00
2022-11-23T05:52:33.421Z,0.00
2022-11-23T05:53:33.414Z,0.00
2022-11-23T05:54:33.409Z,0.00
2022-11-23T05:55:33.413Z,0.00
2022-11-23T05:56:37.258Z,0.00
2022-11-23T05:57:33.397Z,0.00
2022-11-23T05:58:33.391Z,0.00
2022-11-23T05:59:33.818Z,0.00
2022-11-23T06:00:33.407Z,0.00
2022-11-23T06:01:33.386Z,0.00
2022-11-23T06:02:38.151Z,0.00
2022-11-23T06:03:33.394Z,0.00
2022-11-23T06:04:33.369Z,0.00
2022-11-23T06:05:33.363Z,0.00
2022-11-23T06:06:33.365Z,0.00
2022-11-23T06:07:33.446Z,0.00
2022-11-23T06:08:33.349Z,0.00
2022-11-23T06:09:33.631Z,0.00
2022-11-23T06:10:33.343Z,0.00
2022-11-23T06:11:33.341Z,0.00
2022-11-23T06:12:33.335Z,0.00
2022-11-23T06:13:33.353Z,0.00
2022-11-23T06:14:33.327Z,0.00
2022-11-23T06:15:33.342Z,0.00
2022-11-23T06:16:33.335Z,0.00
2022-11-23T06:17:33.322Z,0.00
2022-11-23T06:18:33.312Z,0.00
2022-11-23T06:19:33.796Z,0.00
2022-11-23T06:20:33.303Z,0.00
2022-11-23T06:21:33.296Z,0.00
2022-11-23T06:22:33.295Z,0.00
2022-11-23T06:23:33.287Z,0.00
2022-11-23T06:24:33.290Z,0.00
2022-11-23T06:25:33.283Z,0.00
2022-11-23T06:26:33.277Z,0.00
2022-11-23T06:27:33.293Z,0.00
2022-11-23T06:28:33.281Z,0.00
2022-11-23T06:29:33.737Z,0.00
2022-11-23T06:30:33.257Z,0.00
2022-11-23T06:31:33.252Z,0.00
2022-11-23T06:32:33.271Z,0.00
2022-11-23T06:33:33.246Z,0.00
2022-11-23T06:34:33.240Z,0.00
2022-11-23T06:35:33.234Z,0.00
2022-11-23T06:36:33.232Z,0.00
2022-11-23T06:37:33.226Z,0.00
2022-11-23T06:38:33.222Z,0.00
2022-11-23T06:39:33.560Z,0.00
2022-11-23T06:40:33.418Z,0.00
2022-11-23T06:41:33.207Z,0.00
2022-11-23T06:42:40.582Z,0.00
2022-11-23T06:43:33.246Z,0.00
2022-11-23T06:44:33.198Z,4.00
2022-11-23T06:45:33.192Z,4.00
2022-11-23T06:46:33.189Z,0.00
2022-11-23T06:47:33.187Z,0.00
2022-11-23T06:48:33.206Z,0.00
2022-11-23T06:49:33.353Z,4.00
2022-11-23T06:50:33.171Z,0.00
2022-11-23T06:51:33.168Z,4.00
2022-11-23T06:52:33.169Z,4.00
2022-11-23T06:53:33.162Z,4.00
2022-11-23T06:54:33.157Z,4.00
2022-11-23T06:55:33.150Z,4.00
2022-11-23T06:56:33.149Z,4.00
2022-11-23T06:57:33.139Z,8.00
2022-11-23T06:58:33.137Z,4.00
2022-11-23T06:59:33.328Z,8.00
2022-11-23T07:00:33.131Z,8.00
2022-11-23T07:01:33.169Z,12.00
2022-11-23T07:02:33.124Z,16.00
2022-11-23T07:03:33.172Z,12.00
2022-11-23T07:04:33.137Z,12.00
2022-11-23T07:05:33.213Z,16.00
2022-11-23T07:06:33.111Z,12.00
2022-11-23T07:07:33.196Z,16.00
2022-11-23T07:08:33.102Z,16.00
2022-11-23T07:09:33.397Z,16.00
2022-11-23T07:10:33.089Z,16.00
2022-11-23T07:11:33.087Z,16.00
2022-11-23T07:12:33.078Z,20.00
2022-11-23T07:13:33.072Z,16.00
2022-11-23T07:14:33.070Z,24.00
2022-11-23T07:15:33.063Z,24.00
2022-11-23T07:16:33.066Z,28.00
2022-11-23T07:17:33.056Z,32.00
2022-11-23T07:18:33.060Z,32.00
2022-11-23T07:19:33.367Z,32.00
2022-11-23T07:20:33.065Z,28.00
2022-11-23T07:21:33.040Z,32.00
2022-11-23T07:22:33.034Z,32.00
2022-11-23T07:23:33.032Z,32.00
2022-11-23T07:24:39.531Z,36.00
2022-11-23T07:25:33.021Z,36.00
2022-11-23T07:26:33.018Z,36.00
2022-11-23T07:27:33.017Z,36.00
2022-11-23T07:28:33.014Z,40.00
2022-11-23T07:29:33.345Z,40.00
2022-11-23T07:30:33.003Z,44.00
2022-11-23T07:31:32.998Z,44.00
2022-11-23T07:32:32.992Z,44.00
2022-11-23T07:33:32.987Z,52.00
2022-11-23T07:34:32.992Z,60.00
2022-11-23T07:35:33.002Z,76.00
2022-11-23T07:36:32.998Z,88.00
2022-11-23T07:37:33.070Z,92.00
2022-11-23T07:38:32.967Z,84.00
2022-11-23T07:39:55.530Z,76.00
2022-11-23T07:40:32.964Z,84.00
2022-11-23T07:41:32.955Z,80.00
2022-11-23T07:42:36.959Z,80.00
2022-11-23T07:43:32.944Z,80.00
2022-11-23T07:44:32.943Z,88.00
2022-11-23T07:45:32.939Z,100.00
2022-11-23T07:46:32.934Z,116.00
2022-11-23T07:47:32.928Z,148.00
2022-11-23T07:48:36.306Z,148.00
2022-11-23T07:49:33.401Z,148.00
2022-11-23T07:50:32.918Z,188.00
2022-11-23T07:51:32.915Z,228.00
2022-11-23T07:52:32.926Z,204.00
2022-11-23T07:53:32.903Z,208.00
2022-11-23T07:54:32.899Z,200.00
2022-11-23T07:55:32.894Z,148.00
2022-11-23T07:56:32.892Z,124.00
2022-11-23T07:57:32.892Z,136.00
2022-11-23T07:58:32.888Z,136.00
2022-11-23T07:59:33.056Z,128.00
2022-11-23T08:00:32.888Z,132.00
2022-11-23T08:01:32.875Z,132.00
2022-11-23T08:02:32.920Z,120.00
2022-11-23T08:03:32.891Z,120.00
2022-11-23T08:04:33.117Z,136.00
2022-11-23T08:05:32.850Z,148.00
2022-11-23T08:06:32.848Z,168.00
2022-11-23T08:07:32.922Z,208.00
2022-11-23T08:08:32.863Z,296.00
2022-11-23T08:09:32.835Z,300.00
2022-11-23T08:10:32.835Z,316.00
2022-11-23T08:11:32.828Z,300.00
2022-11-23T08:12:32.828Z,288.00
2022-11-23T08:13:32.819Z,252.00
2022-11-23T08:14:32.959Z,208.00
2022-11-23T08:15:32.814Z,188.00
2022-11-23T08:16:32.806Z,188.00
2022-11-23T08:17:32.799Z,180.00
2022-11-23T08:18:32.798Z,176.00
2022-11-23T08:19:32.791Z,176.00
2022-11-23T08:20:32.788Z,180.00
2022-11-23T08:21:32.784Z,176.00
2022-11-23T08:22:32.782Z,180.00
2022-11-23T08:23:32.776Z,180.00
2022-11-23T08:24:33.047Z,180.00
2022-11-23T08:25:32.768Z,180.00
2022-11-23T08:26:32.765Z,180.00
2022-11-23T08:27:32.760Z,180.00
2022-11-23T08:28:32.755Z,184.00
2022-11-23T08:29:32.750Z,180.00
2022-11-23T08:30:32.751Z,184.00
2022-11-23T08:31:32.742Z,184.00
2022-11-23T08:32:32.741Z,184.00
2022-11-23T08:33:32.733Z,184.00
2022-11-23T08:34:33.203Z,184.00
2022-11-23T08:35:32.728Z,184.00
2022-11-23T08:36:32.725Z,184.00
2022-11-23T08:37:32.718Z,184.00
2022-11-23T08:38:32.714Z,184.00
2022-11-23T08:39:32.722Z,184.00
2022-11-23T08:40:32.726Z,180.00
2022-11-23T08:41:32.699Z,184.00
2022-11-23T08:42:32.698Z,184.00
2022-11-23T08:43:32.695Z,188.00
2022-11-23T08:44:32.896Z,184.00
2022-11-23T08:45:32.690Z,188.00
2022-11-23T08:46:32.694Z,180.00
2022-11-23T08:47:32.679Z,184.00
2022-11-23T08:48:32.672Z,180.00
2022-11-23T08:49:32.663Z,180.00
2022-11-23T08:50:32.662Z,188.00
2022-11-23T08:51:32.656Z,188.00
2022-11-23T08:52:32.654Z,192.00
2022-11-23T08:53:32.648Z,192.00
2022-11-23T08:54:32.939Z,192.00
2022-11-23T08:55:32.643Z,196.00
2022-11-23T08:56:32.655Z,196.00
2022-11-23T08:57:32.634Z,196.00
2022-11-23T08:58:32.631Z,200.00
2022-11-23T08:59:32.626Z,200.00
2022-11-23T09:00:32.621Z,196.00
2022-11-23T09:01:32.674Z,184.00
2022-11-23T09:02:32.609Z,204.00
2022-11-23T09:03:32.607Z,204.00
2022-11-23T09:04:32.768Z,200.00
2022-11-23T09:05:32.597Z,196.00
2022-11-23T09:06:32.595Z,200.00
2022-11-23T09:07:32.700Z,196.00
2022-11-23T09:08:32.598Z,204.00
2022-11-23T09:09:32.579Z,196.00
2022-11-23T09:10:32.577Z,200.00
2022-11-23T09:11:32.574Z,196.00
2022-11-23T09:12:32.614Z,192.00
2022-11-23T09:13:32.561Z,200.00
2022-11-23T09:14:32.702Z,196.00
2022-11-23T09:15:32.556Z,192.00
2022-11-23T09:16:34.141Z,196.00
2022-11-23T09:17:32.544Z,192.00
2022-11-23T09:18:32.547Z,192.00
2022-11-23T09:19:32.540Z,188.00
2022-11-23T09:20:32.533Z,196.00
2022-11-23T09:21:32.528Z,196.00
2022-11-23T09:22:32.532Z,196.00
2022-11-23T09:23:32.517Z,196.00
2022-11-23T09:24:32.970Z,196.00
2022-11-23T09:25:32.510Z,188.00
2022-11-23T09:26:32.526Z,192.00
2022-11-23T09:27:32.500Z,200.00
2022-11-23T09:28:32.519Z,200.00
2022-11-23T09:29:32.491Z,192.00
2022-11-23T09:30:32.489Z,192.00
2022-11-23T09:31:32.491Z,200.00
2022-11-23T09:32:32.482Z,192.00
2022-11-23T09:33:32.471Z,192.00
2022-11-23T09:34:32.735Z,192.00
2022-11-23T09:35:32.465Z,196.00
2022-11-23T09:36:32.707Z,204.00
2022-11-23T09:37:32.455Z,196.00
2022-11-23T09:38:56.053Z,200.00
2022-11-23T09:39:32.449Z,196.00
2022-11-23T09:40:32.447Z,188.00
2022-11-23T09:41:32.440Z,212.00
2022-11-23T09:42:32.440Z,232.00
2022-11-23T09:43:32.430Z,244.00
2022-11-23T09:44:32.941Z,216.00
2022-11-23T09:45:32.421Z,200.00
2022-11-23T09:46:36.855Z,256.00
2022-11-23T09:47:32.411Z,232.00
2022-11-23T09:48:32.409Z,236.00
2022-11-23T09:49:32.404Z,220.00
2022-11-23T09:50:32.400Z,276.00
2022-11-23T09:51:32.395Z,228.00
2022-11-23T09:52:32.416Z,228.00
2022-11-23T09:53:32.389Z,212.00
2022-11-23T09:54:32.687Z,220.00
2022-11-23T09:55:32.393Z,256.00
2022-11-23T09:56:32.377Z,256.00
2022-11-23T09:57:32.372Z,256.00
2022-11-23T09:58:32.367Z,264.00
2022-11-23T09:59:32.363Z,256.00
2022-11-23T10:00:32.377Z,288.00
2022-11-23T10:01:32.474Z,244.00
2022-11-23T10:02:32.352Z,272.00
2022-11-23T10:03:32.344Z,372.00
2022-11-23T10:04:32.683Z,320.00
2022-11-23T10:05:32.342Z,240.00
2022-11-23T10:06:32.333Z,320.00
2022-11-23T10:07:32.357Z,264.00
2022-11-23T10:08:32.323Z,344.00
2022-11-23T10:09:32.319Z,216.00
2022-11-23T10:10:32.317Z,220.00
2022-11-23T10:11:32.311Z,260.00
2022-11-23T10:12:35.976Z,252.00
2022-11-23T10:13:32.300Z,364.00
2022-11-23T10:14:32.668Z,276.00
2022-11-23T10:15:32.292Z,372.00
2022-11-23T10:16:32.309Z,300.00
2022-11-23T10:17:32.284Z,348.00
2022-11-23T10:18:32.284Z,280.00
2022-11-23T10:19:32.282Z,328.00
2022-11-23T10:20:32.304Z,292.00
2022-11-23T10:21:32.267Z,340.00
2022-11-23T10:22:32.266Z,296.00
2022-11-23T10:23:32.377Z,300.00
2022-11-23T10:24:32.477Z,344.00
2022-11-23T10:25:37.556Z,304.00
2022-11-23T10:26:32.247Z,304.00
2022-11-23T10:27:32.242Z,296.00
2022-11-23T10:28:32.241Z,252.00
2022-11-23T10:29:32.240Z,252.00
2022-11-23T10:30:32.233Z,300.00
2022-11-23T10:31:32.225Z,300.00
2022-11-23T10:32:32.243Z,292.00
2022-11-23T10:33:32.221Z,304.00
2022-11-23T10:34:32.555Z,276.00
2022-11-23T10:35:32.212Z,280.00
2022-11-23T10:36:32.407Z,300.00
2022-11-23T10:37:32.204Z,296.00
2022-11-23T10:38:32.194Z,272.00
2022-11-23T10:39:32.198Z,344.00
2022-11-23T10:40:32.205Z,324.00
2022-11-23T10:41:32.190Z,248.00
2022-11-23T10:42:32.180Z,308.00
2022-11-23T10:43:32.176Z,340.00
2022-11-23T10:44:32.591Z,328.00
2022-11-23T10:45:32.170Z,308.00
2022-11-23T10:46:32.177Z,288.00
2022-11-23T10:47:32.158Z,304.00
2022-11-23T10:48:32.175Z,344.00
2022-11-23T10:49:32.156Z,284.00
2022-11-23T10:50:32.148Z,280.00
2022-11-23T10:51:32.148Z,372.00
2022-11-23T10:52:32.135Z,208.00
2022-11-23T10:53:32.134Z,268.00
2022-11-23T10:54:32.504Z,328.00
2022-11-23T10:55:32.127Z,268.00
2022-11-23T10:56:32.119Z,332.00
2022-11-23T10:57:32.115Z,348.00
2022-11-23T10:58:32.112Z,308.00
2022-11-23T10:59:32.124Z,312.00
2022-11-23T11:00:32.106Z,196.00
2022-11-23T11:01:32.152Z,192.00
2022-11-23T11:02:32.093Z,260.00
2022-11-23T11:03:32.091Z,208.00
2022-11-23T11:04:32.416Z,292.00
2022-11-23T11:06:07.014Z,220.00
2022-11-23T11:06:32.076Z,176.00
2022-11-23T11:07:32.126Z,216.00
2022-11-23T11:08:32.078Z,268.00
2022-11-23T11:09:32.377Z,252.00
2022-11-23T11:10:32.059Z,268.00
2022-11-23T11:11:32.060Z,308.00
2022-11-23T11:12:32.054Z,240.00
2022-11-23T11:13:32.050Z,204.00
2022-11-23T11:14:42.727Z,160.00
2022-11-23T11:15:32.037Z,156.00
2022-11-23T11:16:32.037Z,152.00
2022-11-23T11:17:32.029Z,152.00
2022-11-23T11:18:32.026Z,140.00
2022-11-23T11:19:32.019Z,144.00
2022-11-23T11:20:32.034Z,148.00
2022-11-23T11:21:32.015Z,144.00
2022-11-23T11:22:32.006Z,144.00
2022-11-23T11:23:32.003Z,140.00
2022-11-23T11:24:32.246Z,148.00
2022-11-23T11:25:32.006Z,152.00
2022-11-23T11:26:31.991Z,152.00
2022-11-23T11:27:31.984Z,156.00
2022-11-23T11:28:31.983Z,148.00
2022-11-23T11:29:38.389Z,144.00
2022-11-23T11:30:31.971Z,152.00
2022-11-23T11:31:31.968Z,148.00
2022-11-23T11:32:31.966Z,152.00
2022-11-23T11:33:36.111Z,168.00
2022-11-23T11:34:32.156Z,204.00
2022-11-23T11:35:31.950Z,168.00
2022-11-23T11:36:31.964Z,184.00
2022-11-23T11:37:31.955Z,204.00
2022-11-23T11:38:31.946Z,232.00
2022-11-23T11:39:31.932Z,224.00
2022-11-23T11:40:31.928Z,188.00
2022-11-23T11:41:31.924Z,164.00
2022-11-23T11:42:31.920Z,176.00
2022-11-23T11:43:39.101Z,240.00
2022-11-23T11:44:32.182Z,264.00
2022-11-23T11:45:31.908Z,280.00
2022-11-23T11:46:31.900Z,300.00
2022-11-23T11:47:31.900Z,272.00
2022-11-23T11:48:31.898Z,240.00
2022-11-23T11:49:31.890Z,200.00
2022-11-23T11:50:32.395Z,208.00
2022-11-23T11:51:31.881Z,184.00
2022-11-23T11:52:31.894Z,208.00
2022-11-23T11:53:31.876Z,212.00
2022-11-23T11:54:32.202Z,200.00
2022-11-23T11:55:31.932Z,192.00
2022-11-23T11:56:31.863Z,200.00
2022-11-23T11:57:31.865Z,176.00
2022-11-23T11:58:31.891Z,184.00
2022-11-23T11:59:32.312Z,220.00
2022-11-23T12:00:31.847Z,216.00
2022-11-23T12:01:31.842Z,244.00
2022-11-23T12:02:31.882Z,216.00
2022-11-23T12:03:31.840Z,232.00
2022-11-23T12:04:32.112Z,184.00
2022-11-23T12:05:31.824Z,180.00
2022-11-23T12:06:31.833Z,200.00
2022-11-23T12:07:31.865Z,216.00
2022-11-23T12:08:31.829Z,244.00
2022-11-23T12:09:32.269Z,224.00
2022-11-23T12:10:31.800Z,256.00
2022-11-23T12:11:31.797Z,236.00
2022-11-23T12:12:31.797Z,232.00
2022-11-23T12:13:31.792Z,228.00
2022-11-23T12:14:32.094Z,244.00
2022-11-23T12:15:48.746Z,232.00
2022-11-23T12:16:31.780Z,236.00
2022-11-23T12:18:31.766Z,216.00
2022-11-23T12:19:32.164Z,224.00
2022-11-23T12:20:31.757Z,240.00
2022-11-23T12:21:01.382Z,212.00
2022-11-23T12:21:31.792Z,240.00
2022-11-23T12:22:31.745Z,224.00
2022-11-23T12:23:31.746Z,212.00
2022-11-23T12:24:31.757Z,232.00
2022-11-23T12:25:31.755Z,216.00
2022-11-23T12:26:31.731Z,216.00
2022-11-23T12:27:31.727Z,180.00
2022-11-23T12:28:31.728Z,212.00
2022-11-23T12:29:31.994Z,176.00
2022-11-23T12:30:31.714Z,196.00
2022-11-23T12:31:31.716Z,204.00
2022-11-23T12:32:31.713Z,196.00
2022-11-23T12:33:31.702Z,236.00
2022-11-23T12:34:31.949Z,196.00
2022-11-23T12:35:31.694Z,188.00
2022-11-23T12:36:31.689Z,196.00
2022-11-23T12:37:31.685Z,200.00
2022-11-23T12:38:31.685Z,180.00
2022-11-23T12:39:31.680Z,228.00
2022-11-23T12:40:31.689Z,180.00
2022-11-23T12:41:31.669Z,208.00
2022-11-23T12:42:31.662Z,232.00
2022-11-23T12:43:36.416Z,192.00
2022-11-23T12:44:31.815Z,200.00
2022-11-23T12:45:31.650Z,200.00
2022-11-23T12:46:31.644Z,204.00
2022-11-23T12:47:31.644Z,232.00
2022-11-23T12:48:31.636Z,284.00
2022-11-23T12:49:34.839Z,228.00
2022-11-23T12:50:31.626Z,224.00
2022-11-23T12:51:31.626Z,220.00
2022-11-23T12:52:31.621Z,192.00
2022-11-23T12:53:31.682Z,164.00
2022-11-23T12:54:32.014Z,264.00
2022-11-23T12:55:31.607Z,160.00
2022-11-23T12:56:31.654Z,200.00